sensor_id;sensor_type;location;lat;lon;timestamp;P1;durP1;ratioP1;P2;durP2;ratioP2
10144;SDS011;5113;41.822;23.564;2022-09-20T00:02:30;2.70;;;2.60;;
10144;SDS011;5113;41.822;23.564;2022-09-20T00:05:37;2.80;;;2.07;;
10144;SDS011;5113;41.822;23.564;2022-09-20T00:08:45;1.50;;;1.50;;
10144;SDS011;5113;41.822;23.564;2022-09-20T00:11:52;2.07;;;1.97;;
10144;SDS011;5113;41.822;23.564;2022-09-20T00:14:58;1.60;;;1.50;;
10144;SDS011;5113;41.822;23.564;2022-09-20T00:18:06;2.00;;;1.90;;
10144;SDS011;5113;41.822;23.564;2022-09-20T00:21:13;2.00;;;1.93;;
10144;SDS011;5113;41.822;23.564;2022-09-20T00:24:21;1.80;;;1.80;;
10144;SDS011;5113;41.822;23.564;2022-09-20T00:27:27;1.70;;;1.70;;
10144;SDS011;5113;41.822;23.564;2022-09-20T00:30:34;2.00;;;1.90;;
10144;SDS011;5113;41.822;23.564;2022-09-20T00:33:42;1.93;;;1.90;;
10144;SDS011;5113;41.822;23.564;2022-09-20T00:37:18;2.10;;;1.90;;
10144;SDS011;5113;41.822;23.564;2022-09-20T00:40:24;1.97;;;1.80;;
10144;SDS011;5113;41.822;23.564;2022-09-20T00:43:34;6.87;;;6.57;;
10144;SDS011;5113;41.822;23.564;2022-09-20T00:46:42;1.90;;;1.80;;
10144;SDS011;5113;41.822;23.564;2022-09-20T00:49:52;2.13;;;2.00;;
10144;SDS011;5113;41.822;23.564;2022-09-20T00:53:04;2.37;;;2.07;;
10144;SDS011;5113;41.822;23.564;2022-09-20T00:56:15;2.10;;;2.00;;
10144;SDS011;5113;41.822;23.564;2022-09-20T00:59:26;2.57;;;2.37;;
10144;SDS011;5113;41.822;23.564;2022-09-20T01:02:36;2.00;;;1.90;;
10144;SDS011;5113;41.822;23.564;2022-09-20T01:05:47;2.00;;;1.90;;
10144;SDS011;5113;41.822;23.564;2022-09-20T01:08:55;2.33;;;2.23;;
10144;SDS011;5113;41.822;23.564;2022-09-20T01:12:06;2.17;;;2.07;;
10144;SDS011;5113;41.822;23.564;2022-09-20T01:15:18;1.67;;;1.60;;
10144;SDS011;5113;41.822;23.564;2022-09-20T01:18:27;2.00;;;1.90;;
10144;SDS011;5113;41.822;23.564;2022-09-20T01:21:37;2.30;;;2.20;;
10144;SDS011;5113;41.822;23.564;2022-09-20T01:24:45;6.10;;;5.80;;
10144;SDS011;5113;41.822;23.564;2022-09-20T01:28:02;2.17;;;2.07;;
10144;SDS011;5113;41.822;23.564;2022-09-20T01:31:10;2.80;;;2.60;;
10144;SDS011;5113;41.822;23.564;2022-09-20T01:34:22;2.23;;;2.03;;
10144;SDS011;5113;41.822;23.564;2022-09-20T01:37:34;2.03;;;1.93;;
10144;SDS011;5113;41.822;23.564;2022-09-20T01:40:58;2.47;;;2.27;;
10144;SDS011;5113;41.822;23.564;2022-09-20T01:44:12;2.13;;;2.03;;
10144;SDS011;5113;41.822;23.564;2022-09-20T01:47:29;2.47;;;2.37;;
10144;SDS011;5113;41.822;23.564;2022-09-20T01:50:41;2.60;;;2.40;;
10144;SDS011;5113;41.822;23.564;2022-09-20T01:54:12;2.30;;;2.20;;
10144;SDS011;5113;41.822;23.564;2022-09-20T01:58:06;2.00;;;1.90;;
10144;SDS011;5113;41.822;23.564;2022-09-20T02:09:11;2.60;;;2.40;;
10144;SDS011;5113;41.822;23.564;2022-09-20T02:12:32;2.23;;;2.13;;
10144;SDS011;5113;41.822;23.564;2022-09-20T02:16:01;1.90;;;1.80;;
10144;SDS011;5113;41.822;23.564;2022-09-20T02:19:26;2.37;;;2.17;;
10144;SDS011;5113;41.822;23.564;2022-09-20T02:22:57;2.30;;;2.20;;
10144;SDS011;5113;41.822;23.564;2022-09-20T02:26:23;2.00;;;1.90;;
10144;SDS011;5113;41.822;23.564;2022-09-20T02:29:43;2.20;;;2.10;;
10144;SDS011;5113;41.822;23.564;2022-09-20T02:33:11;2.40;;;2.30;;
10144;SDS011;5113;41.822;23.564;2022-09-20T02:36:31;2.03;;;1.93;;
10144;SDS011;5113;41.822;23.564;2022-09-20T02:39:47;2.07;;;1.97;;
10144;SDS011;5113;41.822;23.564;2022-09-20T02:43:09;2.43;;;1.97;;
10144;SDS011;5113;41.822;23.564;2022-09-20T02:46:27;2.33;;;2.20;;
10144;SDS011;5113;41.822;23.564;2022-09-20T02:49:40;3.73;;;3.27;;
10144;SDS011;5113;41.822;23.564;2022-09-20T02:53:01;8.37;;;2.33;;
10144;SDS011;5113;41.822;23.564;2022-09-20T02:56:15;3.47;;;2.03;;
10144;SDS011;5113;41.822;23.564;2022-09-20T02:59:28;2.37;;;1.90;;
10144;SDS011;5113;41.822;23.564;2022-09-20T03:02:45;2.70;;;2.47;;
10144;SDS011;5113;41.822;23.564;2022-09-20T03:06:05;1.90;;;1.80;;
10144;SDS011;5113;41.822;23.564;2022-09-20T03:09:22;1.97;;;1.87;;
10144;SDS011;5113;41.822;23.564;2022-09-20T03:12:39;1.60;;;1.50;;
10144;SDS011;5113;41.822;23.564;2022-09-20T03:16:00;1.53;;;1.43;;
10144;SDS011;5113;41.822;23.564;2022-09-20T03:19:15;6.17;;;5.87;;
10144;SDS011;5113;41.822;23.564;2022-09-20T03:22:31;2.43;;;2.30;;
10144;SDS011;5113;41.822;23.564;2022-09-20T03:25:52;2.77;;;2.20;;
10144;SDS011;5113;41.822;23.564;2022-09-20T03:29:07;2.27;;;2.07;;
10144;SDS011;5113;41.822;23.564;2022-09-20T03:32:33;2.30;;;2.20;;
10144;SDS011;5113;41.822;23.564;2022-09-20T03:35:52;11.97;;;11.43;;
10144;SDS011;5113;41.822;23.564;2022-09-20T03:42:50;20.23;;;19.33;;
10144;SDS011;5113;41.822;23.564;2022-09-20T03:46:01;8.33;;;7.87;;
10144;SDS011;5113;41.822;23.564;2022-09-20T03:53:01;2.77;;;2.57;;
10144;SDS011;5113;41.822;23.564;2022-09-20T03:56:29;2.30;;;2.20;;
10144;SDS011;5113;41.822;23.564;2022-09-20T04:00:17;2.77;;;2.47;;
10144;SDS011;5113;41.822;23.564;2022-09-20T04:03:29;3.17;;;2.87;;
10144;SDS011;5113;41.822;23.564;2022-09-20T04:07:04;2.70;;;2.57;;
10144;SDS011;5113;41.822;23.564;2022-09-20T04:10:32;1.83;;;1.80;;
10144;SDS011;5113;41.822;23.564;2022-09-20T04:13:47;1.60;;;1.57;;
10144;SDS011;5113;41.822;23.564;2022-09-20T04:16:59;1.60;;;1.50;;
10144;SDS011;5113;41.822;23.564;2022-09-20T04:20:14;2.03;;;1.97;;
10144;SDS011;5113;41.822;23.564;2022-09-20T04:23:29;4.43;;;4.23;;
10144;SDS011;5113;41.822;23.564;2022-09-20T04:26:43;2.20;;;2.10;;
10144;SDS011;5113;41.822;23.564;2022-09-20T04:29:54;1.63;;;1.63;;
10144;SDS011;5113;41.822;23.564;2022-09-20T04:33:07;2.00;;;2.00;;
10144;SDS011;5113;41.822;23.564;2022-09-20T04:36:34;1.40;;;1.40;;
10144;SDS011;5113;41.822;23.564;2022-09-20T04:39:45;1.40;;;1.30;;
10144;SDS011;5113;41.822;23.564;2022-09-20T04:46:52;1.40;;;1.40;;
10144;SDS011;5113;41.822;23.564;2022-09-20T04:50:25;1.40;;;1.40;;
10144;SDS011;5113;41.822;23.564;2022-09-20T04:53:56;1.40;;;1.40;;
10144;SDS011;5113;41.822;23.564;2022-09-20T04:57:30;1.50;;;1.50;;
10144;SDS011;5113;41.822;23.564;2022-09-20T05:01:06;1.50;;;1.40;;
10144;SDS011;5113;41.822;23.564;2022-09-20T05:05:03;3.33;;;3.23;;
10144;SDS011;5113;41.822;23.564;2022-09-20T05:08:39;1.50;;;1.50;;
10144;SDS011;5113;41.822;23.564;2022-09-20T05:16:01;1.30;;;1.30;;
10144;SDS011;5113;41.822;23.564;2022-09-20T05:19:15;1.50;;;1.50;;
10144;SDS011;5113;41.822;23.564;2022-09-20T05:22:45;1.70;;;1.60;;
10144;SDS011;5113;41.822;23.564;2022-09-20T05:26:07;1.50;;;1.50;;
10144;SDS011;5113;41.822;23.564;2022-09-20T05:29:17;1.57;;;1.57;;
10144;SDS011;5113;41.822;23.564;2022-09-20T05:32:32;1.40;;;1.40;;
10144;SDS011;5113;41.822;23.564;2022-09-20T05:35:51;1.33;;;1.33;;
10144;SDS011;5113;41.822;23.564;2022-09-20T05:39:12;1.33;;;1.33;;
10144;SDS011;5113;41.822;23.564;2022-09-20T05:42:33;1.83;;;1.70;;
10144;SDS011;5113;41.822;23.564;2022-09-20T05:45:50;1.47;;;1.47;;
10144;SDS011;5113;41.822;23.564;2022-09-20T05:49:14;1.30;;;1.30;;
10144;SDS011;5113;41.822;23.564;2022-09-20T05:52:32;2.33;;;2.23;;
10144;SDS011;5113;41.822;23.564;2022-09-20T05:55:50;4.57;;;1.57;;
10144;SDS011;5113;41.822;23.564;2022-09-20T05:59:05;1.73;;;1.63;;
10144;SDS011;5113;41.822;23.564;2022-09-20T06:02:32;1.60;;;1.60;;
10144;SDS011;5113;41.822;23.564;2022-09-20T06:05:48;1.70;;;1.70;;
10144;SDS011;5113;41.822;23.564;2022-09-20T06:09:14;2.33;;;2.13;;
10144;SDS011;5113;41.822;23.564;2022-09-20T06:12:37;1.63;;;1.63;;
10144;SDS011;5113;41.822;23.564;2022-09-20T06:15:56;1.40;;;1.40;;
10144;SDS011;5113;41.822;23.564;2022-09-20T06:19:08;1.70;;;1.70;;
10144;SDS011;5113;41.822;23.564;2022-09-20T06:22:23;1.40;;;1.40;;
10144;SDS011;5113;41.822;23.564;2022-09-20T06:25:34;2.10;;;1.90;;
10144;SDS011;5113;41.822;23.564;2022-09-20T06:28:46;1.53;;;1.53;;
10144;SDS011;5113;41.822;23.564;2022-09-20T06:32:01;1.40;;;1.40;;
10144;SDS011;5113;41.822;23.564;2022-09-20T06:35:07;1.50;;;1.50;;
10144;SDS011;5113;41.822;23.564;2022-09-20T06:38:20;1.80;;;1.77;;
10144;SDS011;5113;41.822;23.564;2022-09-20T06:41:58;1.63;;;1.63;;
10144;SDS011;5113;41.822;23.564;2022-09-20T06:45:05;2.10;;;2.00;;
10144;SDS011;5113;41.822;23.564;2022-09-20T06:48:12;1.50;;;1.50;;
10144;SDS011;5113;41.822;23.564;2022-09-20T06:51:18;1.60;;;1.60;;
10144;SDS011;5113;41.822;23.564;2022-09-20T06:54:27;1.93;;;1.83;;
10144;SDS011;5113;41.822;23.564;2022-09-20T06:57:34;2.70;;;2.50;;
10144;SDS011;5113;41.822;23.564;2022-09-20T07:00:42;2.37;;;2.27;;
10144;SDS011;5113;41.822;23.564;2022-09-20T07:03:48;3.90;;;3.80;;
10144;SDS011;5113;41.822;23.564;2022-09-20T07:06:58;4.53;;;2.77;;
10144;SDS011;5113;41.822;23.564;2022-09-20T07:10:10;2.60;;;2.50;;
10144;SDS011;5113;41.822;23.564;2022-09-20T07:13:18;2.53;;;2.43;;
10144;SDS011;5113;41.822;23.564;2022-09-20T07:16:24;1.80;;;1.70;;
10144;SDS011;5113;41.822;23.564;2022-09-20T07:19:31;1.57;;;1.57;;
10144;SDS011;5113;41.822;23.564;2022-09-20T07:22:38;2.20;;;2.10;;
10144;SDS011;5113;41.822;23.564;2022-09-20T07:25:46;2.00;;;1.77;;
10144;SDS011;5113;41.822;23.564;2022-09-20T07:28:52;2.33;;;2.23;;
10144;SDS011;5113;41.822;23.564;2022-09-20T07:31:59;1.60;;;1.60;;
10144;SDS011;5113;41.822;23.564;2022-09-20T07:35:06;2.00;;;1.90;;
10144;SDS011;5113;41.822;23.564;2022-09-20T07:38:13;2.00;;;1.90;;
10144;SDS011;5113;41.822;23.564;2022-09-20T07:41:21;2.00;;;1.90;;
10144;SDS011;5113;41.822;23.564;2022-09-20T07:44:27;1.83;;;1.83;;
10144;SDS011;5113;41.822;23.564;2022-09-20T07:47:34;2.10;;;2.00;;
10144;SDS011;5113;41.822;23.564;2022-09-20T07:50:49;2.90;;;1.93;;
10144;SDS011;5113;41.822;23.564;2022-09-20T07:53:55;1.90;;;1.80;;
10144;SDS011;5113;41.822;23.564;2022-09-20T07:57:03;1.53;;;1.53;;
10144;SDS011;5113;41.822;23.564;2022-09-20T08:00:10;1.70;;;1.70;;
10144;SDS011;5113;41.822;23.564;2022-09-20T08:03:17;2.73;;;2.53;;
10144;SDS011;5113;41.822;23.564;2022-09-20T08:06:23;1.67;;;1.67;;
10144;SDS011;5113;41.822;23.564;2022-09-20T08:09:30;1.63;;;1.60;;
10144;SDS011;5113;41.822;23.564;2022-09-20T08:12:38;5.10;;;4.90;;
10144;SDS011;5113;41.822;23.564;2022-09-20T08:16:05;3.27;;;2.93;;
10144;SDS011;5113;41.822;23.564;2022-09-20T08:19:14;3.47;;;2.13;;
10144;SDS011;5113;41.822;23.564;2022-09-20T08:22:22;2.97;;;2.10;;
10144;SDS011;5113;41.822;23.564;2022-09-20T08:25:29;2.10;;;2.00;;
10144;SDS011;5113;41.822;23.564;2022-09-20T08:28:36;1.90;;;1.80;;
10144;SDS011;5113;41.822;23.564;2022-09-20T08:31:44;2.10;;;2.00;;
10144;SDS011;5113;41.822;23.564;2022-09-20T08:34:50;1.67;;;1.67;;
10144;SDS011;5113;41.822;23.564;2022-09-20T08:37:57;1.90;;;1.80;;
10144;SDS011;5113;41.822;23.564;2022-09-20T08:41:23;1.90;;;1.80;;
10144;SDS011;5113;41.822;23.564;2022-09-20T08:44:38;1.90;;;1.90;;
10144;SDS011;5113;41.822;23.564;2022-09-20T08:47:52;1.50;;;1.50;;
10144;SDS011;5113;41.822;23.564;2022-09-20T08:51:03;2.03;;;2.00;;
10144;SDS011;5113;41.822;23.564;2022-09-20T08:54:10;1.80;;;1.70;;
10144;SDS011;5113;41.822;23.564;2022-09-20T08:57:19;1.80;;;1.70;;
10144;SDS011;5113;41.822;23.564;2022-09-20T09:00:27;1.83;;;1.83;;
10144;SDS011;5113;41.822;23.564;2022-09-20T09:03:35;1.60;;;1.60;;
10144;SDS011;5113;41.822;23.564;2022-09-20T09:06:41;3.53;;;1.90;;
10144;SDS011;5113;41.822;23.564;2022-09-20T09:09:49;1.70;;;1.70;;
10144;SDS011;5113;41.822;23.564;2022-09-20T09:12:57;2.03;;;1.93;;
10144;SDS011;5113;41.822;23.564;2022-09-20T09:16:08;5.03;;;3.60;;
10144;SDS011;5113;41.822;23.564;2022-09-20T09:19:24;3.30;;;3.00;;
10144;SDS011;5113;41.822;23.564;2022-09-20T09:22:40;2.13;;;2.03;;
10144;SDS011;5113;41.822;23.564;2022-09-20T09:25:48;2.03;;;2.03;;
10144;SDS011;5113;41.822;23.564;2022-09-20T09:29:08;1.90;;;1.90;;
10144;SDS011;5113;41.822;23.564;2022-09-20T09:32:23;2.00;;;1.90;;
10144;SDS011;5113;41.822;23.564;2022-09-20T09:35:33;1.70;;;1.70;;
10144;SDS011;5113;41.822;23.564;2022-09-20T09:38:41;1.80;;;1.80;;
10144;SDS011;5113;41.822;23.564;2022-09-20T09:41:49;1.77;;;1.77;;
10144;SDS011;5113;41.822;23.564;2022-09-20T09:45:00;1.80;;;1.80;;
10144;SDS011;5113;41.822;23.564;2022-09-20T09:48:18;1.77;;;1.77;;
10144;SDS011;5113;41.822;23.564;2022-09-20T09:51:26;3.53;;;2.53;;
10144;SDS011;5113;41.822;23.564;2022-09-20T09:54:34;2.13;;;2.03;;
10144;SDS011;5113;41.822;23.564;2022-09-20T09:57:43;1.57;;;1.53;;
10144;SDS011;5113;41.822;23.564;2022-09-20T10:01:01;1.70;;;1.70;;
10144;SDS011;5113;41.822;23.564;2022-09-20T10:04:14;1.70;;;1.70;;
10144;SDS011;5113;41.822;23.564;2022-09-20T10:07:26;3.43;;;3.33;;
10144;SDS011;5113;41.822;23.564;2022-09-20T10:10:45;2.73;;;2.53;;
10144;SDS011;5113;41.822;23.564;2022-09-20T10:14:09;1.83;;;1.73;;
10144;SDS011;5113;41.822;23.564;2022-09-20T10:17:29;1.70;;;1.70;;
10144;SDS011;5113;41.822;23.564;2022-09-20T10:20:50;2.07;;;1.97;;
10144;SDS011;5113;41.822;23.564;2022-09-20T10:24:14;4.03;;;1.60;;
10144;SDS011;5113;41.822;23.564;2022-09-20T10:27:37;2.83;;;1.77;;
10144;SDS011;5113;41.822;23.564;2022-09-20T10:30:55;1.97;;;1.97;;
10144;SDS011;5113;41.822;23.564;2022-09-20T10:34:15;2.00;;;1.90;;
10144;SDS011;5113;41.822;23.564;2022-09-20T10:37:39;1.60;;;1.60;;
10144;SDS011;5113;41.822;23.564;2022-09-20T10:44:45;1.90;;;1.80;;
10144;SDS011;5113;41.822;23.564;2022-09-20T10:48:03;1.60;;;1.60;;
10144;SDS011;5113;41.822;23.564;2022-09-20T10:51:12;1.60;;;1.60;;
10144;SDS011;5113;41.822;23.564;2022-09-20T10:54:32;2.00;;;1.90;;
10144;SDS011;5113;41.822;23.564;2022-09-20T10:57:56;6.17;;;5.97;;
10144;SDS011;5113;41.822;23.564;2022-09-20T11:01:22;1.90;;;1.80;;
10144;SDS011;5113;41.822;23.564;2022-09-20T11:04:57;1.63;;;1.63;;
10144;SDS011;5113;41.822;23.564;2022-09-20T11:08:20;1.60;;;1.60;;
10144;SDS011;5113;41.822;23.564;2022-09-20T11:11:33;7.07;;;6.73;;
10144;SDS011;5113;41.822;23.564;2022-09-20T11:14:44;1.77;;;1.77;;
10144;SDS011;5113;41.822;23.564;2022-09-20T11:17:57;1.73;;;1.73;;
10144;SDS011;5113;41.822;23.564;2022-09-20T11:21:10;1.80;;;1.80;;
10144;SDS011;5113;41.822;23.564;2022-09-20T11:24:26;2.00;;;1.93;;
10144;SDS011;5113;41.822;23.564;2022-09-20T11:27:38;1.57;;;1.57;;
10144;SDS011;5113;41.822;23.564;2022-09-20T11:30:50;1.40;;;1.40;;
10144;SDS011;5113;41.822;23.564;2022-09-20T11:34:02;1.70;;;1.60;;
10144;SDS011;5113;41.822;23.564;2022-09-20T11:37:15;2.33;;;2.13;;
10144;SDS011;5113;41.822;23.564;2022-09-20T11:40:25;1.30;;;1.30;;
10144;SDS011;5113;41.822;23.564;2022-09-20T11:43:36;7.57;;;7.23;;
10144;SDS011;5113;41.822;23.564;2022-09-20T11:46:48;1.87;;;1.77;;
10144;SDS011;5113;41.822;23.564;2022-09-20T11:50:05;2.10;;;2.00;;
10144;SDS011;5113;41.822;23.564;2022-09-20T11:53:42;2.57;;;2.37;;
10144;SDS011;5113;41.822;23.564;2022-09-20T11:57:00;2.10;;;1.90;;
10144;SDS011;5113;41.822;23.564;2022-09-20T12:00:11;2.00;;;1.90;;
10144;SDS011;5113;41.822;23.564;2022-09-20T12:03:21;1.80;;;1.70;;
10144;SDS011;5113;41.822;23.564;2022-09-20T12:06:36;4.77;;;4.47;;
10144;SDS011;5113;41.822;23.564;2022-09-20T12:09:50;2.00;;;1.90;;
10144;SDS011;5113;41.822;23.564;2022-09-20T12:13:02;1.90;;;1.80;;
10144;SDS011;5113;41.822;23.564;2022-09-20T12:16:13;1.60;;;1.60;;
10144;SDS011;5113;41.822;23.564;2022-09-20T12:19:35;1.20;;;1.20;;
10144;SDS011;5113;41.822;23.564;2022-09-20T12:22:42;1.40;;;1.37;;
10144;SDS011;5113;41.822;23.564;2022-09-20T12:25:58;1.80;;;1.70;;
10144;SDS011;5113;41.822;23.564;2022-09-20T12:33:00;1.07;;;1.07;;
10144;SDS011;5113;41.822;23.564;2022-09-20T12:36:15;1.00;;;1.00;;
10144;SDS011;5113;41.822;23.564;2022-09-20T12:39:22;4.77;;;1.90;;
10144;SDS011;5113;41.822;23.564;2022-09-20T12:42:34;1.03;;;1.03;;
10144;SDS011;5113;41.822;23.564;2022-09-20T12:45:41;3.47;;;2.00;;
10144;SDS011;5113;41.822;23.564;2022-09-20T12:49:19;5.03;;;2.63;;
10144;SDS011;5113;41.822;23.564;2022-09-20T12:53:11;1.20;;;1.20;;
10144;SDS011;5113;41.822;23.564;2022-09-20T12:56:20;1.40;;;1.40;;
10144;SDS011;5113;41.822;23.564;2022-09-20T12:59:31;1.10;;;1.10;;
10144;SDS011;5113;41.822;23.564;2022-09-20T13:02:42;2.20;;;2.10;;
10144;SDS011;5113;41.822;23.564;2022-09-20T13:09:30;1.20;;;1.20;;
10144;SDS011;5113;41.822;23.564;2022-09-20T13:12:37;1.60;;;1.50;;
10144;SDS011;5113;41.822;23.564;2022-09-20T13:15:46;1.40;;;1.40;;
10144;SDS011;5113;41.822;23.564;2022-09-20T13:18:58;1.37;;;1.33;;
10144;SDS011;5113;41.822;23.564;2022-09-20T13:22:12;1.83;;;1.73;;
10144;SDS011;5113;41.822;23.564;2022-09-20T13:25:24;1.27;;;1.27;;
10144;SDS011;5113;41.822;23.564;2022-09-20T13:28:33;1.20;;;1.20;;
10144;SDS011;5113;41.822;23.564;2022-09-20T13:31:44;1.63;;;1.53;;
10144;SDS011;5113;41.822;23.564;2022-09-20T13:35:03;1.77;;;1.63;;
10144;SDS011;5113;41.822;23.564;2022-09-20T13:38:12;4.30;;;4.10;;
10144;SDS011;5113;41.822;23.564;2022-09-20T13:41:26;1.90;;;1.30;;
10144;SDS011;5113;41.822;23.564;2022-09-20T13:44:35;1.20;;;1.20;;
10144;SDS011;5113;41.822;23.564;2022-09-20T13:47:43;1.63;;;1.63;;
10144;SDS011;5113;41.822;23.564;2022-09-20T13:50:54;1.30;;;1.30;;
10144;SDS011;5113;41.822;23.564;2022-09-20T13:56:58;1.30;;;1.30;;
10144;SDS011;5113;41.822;23.564;2022-09-20T14:00:11;1.60;;;1.50;;
10144;SDS011;5113;41.822;23.564;2022-09-20T14:03:18;1.93;;;1.83;;
10144;SDS011;5113;41.822;23.564;2022-09-20T14:06:26;1.37;;;1.37;;
10144;SDS011;5113;41.822;23.564;2022-09-20T14:09:33;3.07;;;2.00;;
10144;SDS011;5113;41.822;23.564;2022-09-20T14:12:44;3.73;;;3.33;;
10144;SDS011;5113;41.822;23.564;2022-09-20T14:15:53;6.40;;;3.07;;
10144;SDS011;5113;41.822;23.564;2022-09-20T14:18:59;2.57;;;2.37;;
10144;SDS011;5113;41.822;23.564;2022-09-20T14:22:07;1.87;;;1.77;;
10144;SDS011;5113;41.822;23.564;2022-09-20T14:25:22;1.33;;;1.33;;
10144;SDS011;5113;41.822;23.564;2022-09-20T14:28:32;4.80;;;4.60;;
10144;SDS011;5113;41.822;23.564;2022-09-20T14:31:38;2.30;;;2.10;;
10144;SDS011;5113;41.822;23.564;2022-09-20T14:34:52;3.83;;;2.30;;
10144;SDS011;5113;41.822;23.564;2022-09-20T14:38:06;2.10;;;2.00;;
10144;SDS011;5113;41.822;23.564;2022-09-20T14:41:20;1.20;;;1.20;;
10144;SDS011;5113;41.822;23.564;2022-09-20T14:44:33;1.90;;;1.80;;
10144;SDS011;5113;41.822;23.564;2022-09-20T14:47:51;2.53;;;1.83;;
10144;SDS011;5113;41.822;23.564;2022-09-20T14:51:19;2.40;;;1.63;;
10144;SDS011;5113;41.822;23.564;2022-09-20T14:54:29;3.57;;;2.70;;
10144;SDS011;5113;41.822;23.564;2022-09-20T14:57:36;2.90;;;2.43;;
10144;SDS011;5113;41.822;23.564;2022-09-20T15:00:48;7.23;;;4.83;;
10144;SDS011;5113;41.822;23.564;2022-09-20T15:03:57;1.90;;;1.80;;
10144;SDS011;5113;41.822;23.564;2022-09-20T15:07:05;1.77;;;1.67;;
10144;SDS011;5113;41.822;23.564;2022-09-20T15:10:14;1.70;;;1.70;;
10144;SDS011;5113;41.822;23.564;2022-09-20T15:13:20;1.97;;;1.87;;
10144;SDS011;5113;41.822;23.564;2022-09-20T15:16:28;1.87;;;1.77;;
10144;SDS011;5113;41.822;23.564;2022-09-20T15:19:34;1.90;;;1.80;;
10144;SDS011;5113;41.822;23.564;2022-09-20T15:22:40;7.17;;;5.40;;
10144;SDS011;5113;41.822;23.564;2022-09-20T15:25:48;2.23;;;2.13;;
10144;SDS011;5113;41.822;23.564;2022-09-20T15:28:55;6.97;;;3.90;;
10144;SDS011;5113;41.822;23.564;2022-09-20T15:32:03;2.50;;;2.30;;
10144;SDS011;5113;41.822;23.564;2022-09-20T15:35:10;6.27;;;3.97;;
10144;SDS011;5113;41.822;23.564;2022-09-20T15:38:17;1.90;;;1.80;;
10144;SDS011;5113;41.822;23.564;2022-09-20T15:41:23;2.00;;;1.83;;
10144;SDS011;5113;41.822;23.564;2022-09-20T15:44:35;1.50;;;1.50;;
10144;SDS011;5113;41.822;23.564;2022-09-20T15:47:43;2.40;;;2.23;;
10144;SDS011;5113;41.822;23.564;2022-09-20T15:50:59;3.73;;;3.57;;
10144;SDS011;5113;41.822;23.564;2022-09-20T15:54:08;2.47;;;1.97;;
10144;SDS011;5113;41.822;23.564;2022-09-20T15:57:18;2.77;;;2.10;;
10144;SDS011;5113;41.822;23.564;2022-09-20T16:00:24;2.60;;;1.93;;
10144;SDS011;5113;41.822;23.564;2022-09-20T16:03:33;1.90;;;1.80;;
10144;SDS011;5113;41.822;23.564;2022-09-20T16:06:40;2.07;;;1.97;;
10144;SDS011;5113;41.822;23.564;2022-09-20T16:09:47;1.77;;;1.70;;
10144;SDS011;5113;41.822;23.564;2022-09-20T16:12:54;3.37;;;2.50;;
10144;SDS011;5113;41.822;23.564;2022-09-20T16:16:01;3.60;;;2.17;;
10144;SDS011;5113;41.822;23.564;2022-09-20T16:19:09;3.13;;;2.60;;
10144;SDS011;5113;41.822;23.564;2022-09-20T16:22:24;2.50;;;2.30;;
10144;SDS011;5113;41.822;23.564;2022-09-20T16:25:31;1.93;;;1.83;;
10144;SDS011;5113;41.822;23.564;2022-09-20T16:28:38;1.83;;;1.83;;
10144;SDS011;5113;41.822;23.564;2022-09-20T16:31:50;2.47;;;2.37;;
10144;SDS011;5113;41.822;23.564;2022-09-20T16:35:00;2.23;;;2.13;;
10144;SDS011;5113;41.822;23.564;2022-09-20T16:38:10;2.53;;;2.30;;
10144;SDS011;5113;41.822;23.564;2022-09-20T16:41:17;5.60;;;5.20;;
10144;SDS011;5113;41.822;23.564;2022-09-20T16:44:23;4.20;;;3.53;;
10144;SDS011;5113;41.822;23.564;2022-09-20T16:47:29;3.63;;;3.33;;
10144;SDS011;5113;41.822;23.564;2022-09-20T16:50:37;8.07;;;7.43;;
10144;SDS011;5113;41.822;23.564;2022-09-20T16:53:43;8.87;;;4.30;;
10144;SDS011;5113;41.822;23.564;2022-09-20T16:56:49;3.83;;;2.87;;
10144;SDS011;5113;41.822;23.564;2022-09-20T16:59:55;4.33;;;3.93;;
10144;SDS011;5113;41.822;23.564;2022-09-20T17:03:02;3.40;;;2.90;;
10144;SDS011;5113;41.822;23.564;2022-09-20T17:06:10;4.67;;;3.40;;
10144;SDS011;5113;41.822;23.564;2022-09-20T17:09:17;3.47;;;3.03;;
10144;SDS011;5113;41.822;23.564;2022-09-20T17:12:23;7.23;;;3.47;;
10144;SDS011;5113;41.822;23.564;2022-09-20T17:15:33;4.00;;;3.60;;
10144;SDS011;5113;41.822;23.564;2022-09-20T17:18:41;5.67;;;3.30;;
10144;SDS011;5113;41.822;23.564;2022-09-20T17:21:49;2.63;;;2.33;;
10144;SDS011;5113;41.822;23.564;2022-09-20T17:24:56;2.60;;;2.43;;
10144;SDS011;5113;41.822;23.564;2022-09-20T17:28:02;2.20;;;2.10;;
10144;SDS011;5113;41.822;23.564;2022-09-20T17:31:09;2.10;;;2.00;;
10144;SDS011;5113;41.822;23.564;2022-09-20T17:34:16;2.50;;;2.30;;
10144;SDS011;5113;41.822;23.564;2022-09-20T17:37:26;5.73;;;4.30;;
10144;SDS011;5113;41.822;23.564;2022-09-20T17:40:32;10.17;;;6.43;;
10144;SDS011;5113;41.822;23.564;2022-09-20T17:43:39;6.97;;;4.50;;
10144;SDS011;5113;41.822;23.564;2022-09-20T17:46:46;6.67;;;4.77;;
10144;SDS011;5113;41.822;23.564;2022-09-20T17:49:54;6.33;;;5.67;;
10144;SDS011;5113;41.822;23.564;2022-09-20T17:53:02;3.50;;;3.10;;
10144;SDS011;5113;41.822;23.564;2022-09-20T17:56:09;2.70;;;2.50;;
10144;SDS011;5113;41.822;23.564;2022-09-20T17:59:17;8.97;;;8.37;;
10144;SDS011;5113;41.822;23.564;2022-09-20T18:02:23;3.20;;;2.93;;
10144;SDS011;5113;41.822;23.564;2022-09-20T18:05:29;5.20;;;4.70;;
10144;SDS011;5113;41.822;23.564;2022-09-20T18:08:37;6.60;;;6.20;;
10144;SDS011;5113;41.822;23.564;2022-09-20T18:11:45;3.07;;;2.87;;
10144;SDS011;5113;41.822;23.564;2022-09-20T18:14:53;3.50;;;3.23;;
10144;SDS011;5113;41.822;23.564;2022-09-20T18:18:00;3.17;;;2.97;;
10144;SDS011;5113;41.822;23.564;2022-09-20T18:21:13;2.60;;;2.40;;
10144;SDS011;5113;41.822;23.564;2022-09-20T18:24:22;1.93;;;1.87;;
10144;SDS011;5113;41.822;23.564;2022-09-20T18:27:28;1.90;;;1.80;;
10144;SDS011;5113;41.822;23.564;2022-09-20T18:30:37;1.90;;;1.83;;
10144;SDS011;5113;41.822;23.564;2022-09-20T18:33:43;2.30;;;2.20;;
10144;SDS011;5113;41.822;23.564;2022-09-20T18:36:50;2.20;;;2.10;;
10144;SDS011;5113;41.822;23.564;2022-09-20T18:39:59;5.70;;;3.73;;
10144;SDS011;5113;41.822;23.564;2022-09-20T18:43:05;7.00;;;4.90;;
10144;SDS011;5113;41.822;23.564;2022-09-20T18:46:12;4.87;;;3.47;;
10144;SDS011;5113;41.822;23.564;2022-09-20T18:49:18;5.57;;;4.57;;
10144;SDS011;5113;41.822;23.564;2022-09-20T18:52:25;3.37;;;3.17;;
10144;SDS011;5113;41.822;23.564;2022-09-20T18:55:34;3.97;;;3.40;;
10144;SDS011;5113;41.822;23.564;2022-09-20T18:58:41;3.90;;;3.03;;
10144;SDS011;5113;41.822;23.564;2022-09-20T19:01:55;3.10;;;2.47;;
10144;SDS011;5113;41.822;23.564;2022-09-20T19:05:13;6.53;;;4.97;;
10144;SDS011;5113;41.822;23.564;2022-09-20T19:08:28;7.87;;;5.13;;
10144;SDS011;5113;41.822;23.564;2022-09-20T19:11:42;4.67;;;3.40;;
10144;SDS011;5113;41.822;23.564;2022-09-20T19:15:04;3.93;;;3.40;;
10144;SDS011;5113;41.822;23.564;2022-09-20T19:18:29;3.73;;;3.37;;
10144;SDS011;5113;41.822;23.564;2022-09-20T19:21:56;11.17;;;9.47;;
10144;SDS011;5113;41.822;23.564;2022-09-20T19:25:09;10.30;;;5.20;;
10144;SDS011;5113;41.822;23.564;2022-09-20T19:28:26;10.13;;;6.20;;
10144;SDS011;5113;41.822;23.564;2022-09-20T19:31:33;8.93;;;5.67;;
10144;SDS011;5113;41.822;23.564;2022-09-20T19:34:39;10.40;;;5.80;;
10144;SDS011;5113;41.822;23.564;2022-09-20T19:37:55;7.63;;;4.77;;
10144;SDS011;5113;41.822;23.564;2022-09-20T19:41:12;7.13;;;4.33;;
10144;SDS011;5113;41.822;23.564;2022-09-20T19:44:33;13.17;;;6.53;;
10144;SDS011;5113;41.822;23.564;2022-09-20T19:47:48;19.27;;;8.73;;
10144;SDS011;5113;41.822;23.564;2022-09-20T19:51:01;8.77;;;5.60;;
10144;SDS011;5113;41.822;23.564;2022-09-20T19:54:11;9.27;;;5.07;;
10144;SDS011;5113;41.822;23.564;2022-09-20T19:57:19;9.93;;;5.73;;
10144;SDS011;5113;41.822;23.564;2022-09-20T20:00:29;11.40;;;6.63;;
10144;SDS011;5113;41.822;23.564;2022-09-20T20:03:36;6.80;;;4.67;;